sensor_id;sensor_type;location;lat;lon;timestamp;P1;durP1;ratioP1;P2;durP2;ratioP2
6566;SDS011;3317;43.994;22.878;2023-09-07T00:00:45;15.70;;;7.60;;
6566;SDS011;3317;43.994;22.878;2023-09-07T00:03:12;10.60;;;7.77;;
6566;SDS011;3317;43.994;22.878;2023-09-07T00:05:40;10.03;;;7.00;;
6566;SDS011;3317;43.994;22.878;2023-09-07T00:08:07;12.20;;;7.70;;
6566;SDS011;3317;43.994;22.878;2023-09-07T00:10:34;9.40;;;6.60;;
6566;SDS011;3317;43.994;22.878;2023-09-07T00:13:01;12.40;;;6.63;;
6566;SDS011;3317;43.994;22.878;2023-09-07T00:15:30;8.23;;;6.53;;
6566;SDS011;3317;43.994;22.878;2023-09-07T00:18:01;10.00;;;6.47;;
6566;SDS011;3317;43.994;22.878;2023-09-07T00:20:28;9.70;;;6.37;;
6566;SDS011;3317;43.994;22.878;2023-09-07T00:22:55;11.00;;;6.07;;
6566;SDS011;3317;43.994;22.878;2023-09-07T00:25:22;9.57;;;6.37;;
6566;SDS011;3317;43.994;22.878;2023-09-07T00:27:49;8.20;;;6.03;;
6566;SDS011;3317;43.994;22.878;2023-09-07T00:30:16;7.80;;;6.07;;
6566;SDS011;3317;43.994;22.878;2023-09-07T00:32:44;13.00;;;6.40;;
6566;SDS011;3317;43.994;22.878;2023-09-07T00:35:11;11.93;;;6.10;;
6566;SDS011;3317;43.994;22.878;2023-09-07T00:37:38;9.73;;;6.07;;
6566;SDS011;3317;43.994;22.878;2023-09-07T00:40:06;11.20;;;6.03;;
6566;SDS011;3317;43.994;22.878;2023-09-07T00:42:35;8.40;;;5.90;;
6566;SDS011;3317;43.994;22.878;2023-09-07T00:45:02;13.20;;;6.67;;
6566;SDS011;3317;43.994;22.878;2023-09-07T00:47:30;8.87;;;6.10;;
6566;SDS011;3317;43.994;22.878;2023-09-07T00:50:01;9.30;;;6.60;;
6566;SDS011;3317;43.994;22.878;2023-09-07T00:52:29;8.33;;;7.00;;
6566;SDS011;3317;43.994;22.878;2023-09-07T00:54:57;8.00;;;5.77;;
6566;SDS011;3317;43.994;22.878;2023-09-07T00:57:24;11.20;;;6.30;;
6566;SDS011;3317;43.994;22.878;2023-09-07T00:59:52;9.50;;;6.57;;
6566;SDS011;3317;43.994;22.878;2023-09-07T01:02:19;8.57;;;5.73;;
6566;SDS011;3317;43.994;22.878;2023-09-07T01:04:46;10.40;;;6.20;;
6566;SDS011;3317;43.994;22.878;2023-09-07T01:07:16;11.13;;;6.23;;
6566;SDS011;3317;43.994;22.878;2023-09-07T01:09:47;10.67;;;6.80;;
6566;SDS011;3317;43.994;22.878;2023-09-07T01:12:17;12.73;;;6.07;;
6566;SDS011;3317;43.994;22.878;2023-09-07T01:14:45;6.50;;;5.20;;
6566;SDS011;3317;43.994;22.878;2023-09-07T01:17:12;9.30;;;5.97;;
6566;SDS011;3317;43.994;22.878;2023-09-07T01:19:39;7.50;;;6.10;;
6566;SDS011;3317;43.994;22.878;2023-09-07T01:22:08;7.33;;;5.50;;
6566;SDS011;3317;43.994;22.878;2023-09-07T01:24:36;11.53;;;7.60;;
6566;SDS011;3317;43.994;22.878;2023-09-07T01:27:05;13.07;;;7.67;;
6566;SDS011;3317;43.994;22.878;2023-09-07T01:29:32;12.73;;;7.10;;
6566;SDS011;3317;43.994;22.878;2023-09-07T01:31:59;12.93;;;8.00;;
6566;SDS011;3317;43.994;22.878;2023-09-07T01:34:26;11.93;;;7.20;;
6566;SDS011;3317;43.994;22.878;2023-09-07T01:36:53;10.90;;;7.40;;
6566;SDS011;3317;43.994;22.878;2023-09-07T01:39:21;9.57;;;7.20;;
6566;SDS011;3317;43.994;22.878;2023-09-07T01:41:48;14.10;;;7.33;;
6566;SDS011;3317;43.994;22.878;2023-09-07T01:44:15;9.93;;;7.27;;
6566;SDS011;3317;43.994;22.878;2023-09-07T01:46:42;9.47;;;6.70;;
6566;SDS011;3317;43.994;22.878;2023-09-07T01:49:09;9.37;;;7.20;;
6566;SDS011;3317;43.994;22.878;2023-09-07T01:51:36;10.00;;;7.20;;
6566;SDS011;3317;43.994;22.878;2023-09-07T01:54:03;10.43;;;7.03;;
6566;SDS011;3317;43.994;22.878;2023-09-07T01:56:32;9.63;;;6.97;;
6566;SDS011;3317;43.994;22.878;2023-09-07T01:58:58;18.63;;;7.50;;
6566;SDS011;3317;43.994;22.878;2023-09-07T02:01:26;13.53;;;6.93;;
6566;SDS011;3317;43.994;22.878;2023-09-07T02:03:55;8.93;;;6.03;;
6566;SDS011;3317;43.994;22.878;2023-09-07T02:06:23;14.07;;;6.50;;
6566;SDS011;3317;43.994;22.878;2023-09-07T02:08:50;10.63;;;6.60;;
6566;SDS011;3317;43.994;22.878;2023-09-07T02:11:17;17.43;;;7.30;;
6566;SDS011;3317;43.994;22.878;2023-09-07T02:13:45;11.73;;;6.97;;
6566;SDS011;3317;43.994;22.878;2023-09-07T02:16:13;10.80;;;5.83;;
6566;SDS011;3317;43.994;22.878;2023-09-07T02:18:40;8.87;;;6.27;;
6566;SDS011;3317;43.994;22.878;2023-09-07T02:21:08;10.30;;;6.00;;
6566;SDS011;3317;43.994;22.878;2023-09-07T02:23:36;14.60;;;6.27;;
6566;SDS011;3317;43.994;22.878;2023-09-07T02:26:03;9.10;;;6.20;;
6566;SDS011;3317;43.994;22.878;2023-09-07T02:28:30;10.30;;;6.27;;
6566;SDS011;3317;43.994;22.878;2023-09-07T02:31:03;10.73;;;6.03;;
6566;SDS011;3317;43.994;22.878;2023-09-07T02:33:31;9.77;;;6.50;;
6566;SDS011;3317;43.994;22.878;2023-09-07T02:35:58;10.93;;;6.73;;
6566;SDS011;3317;43.994;22.878;2023-09-07T02:38:24;8.07;;;5.80;;
6566;SDS011;3317;43.994;22.878;2023-09-07T02:40:51;12.20;;;6.70;;
6566;SDS011;3317;43.994;22.878;2023-09-07T02:43:19;7.30;;;5.57;;
6566;SDS011;3317;43.994;22.878;2023-09-07T02:45:48;8.70;;;5.80;;
6566;SDS011;3317;43.994;22.878;2023-09-07T02:48:17;12.30;;;5.73;;
6566;SDS011;3317;43.994;22.878;2023-09-07T02:53:29;11.07;;;6.03;;
6566;SDS011;3317;43.994;22.878;2023-09-07T02:55:56;7.43;;;5.27;;
6566;SDS011;3317;43.994;22.878;2023-09-07T02:58:23;9.80;;;6.27;;
6566;SDS011;3317;43.994;22.878;2023-09-07T03:00:50;10.10;;;6.10;;
6566;SDS011;3317;43.994;22.878;2023-09-07T03:03:19;7.40;;;5.73;;
6566;SDS011;3317;43.994;22.878;2023-09-07T03:05:46;10.70;;;5.80;;
6566;SDS011;3317;43.994;22.878;2023-09-07T03:08:13;8.80;;;6.00;;
6566;SDS011;3317;43.994;22.878;2023-09-07T03:10:40;7.17;;;5.33;;
6566;SDS011;3317;43.994;22.878;2023-09-07T03:13:08;6.90;;;5.40;;
6566;SDS011;3317;43.994;22.878;2023-09-07T03:15:35;7.70;;;5.90;;
6566;SDS011;3317;43.994;22.878;2023-09-07T03:18:03;8.77;;;5.53;;
6566;SDS011;3317;43.994;22.878;2023-09-07T03:20:33;10.10;;;6.33;;
6566;SDS011;3317;43.994;22.878;2023-09-07T03:23:00;10.93;;;6.43;;
6566;SDS011;3317;43.994;22.878;2023-09-07T03:25:28;10.07;;;6.70;;
6566;SDS011;3317;43.994;22.878;2023-09-07T03:27:54;10.50;;;6.37;;
6566;SDS011;3317;43.994;22.878;2023-09-07T03:30:21;12.00;;;6.27;;
6566;SDS011;3317;43.994;22.878;2023-09-07T03:32:48;8.73;;;5.40;;
6566;SDS011;3317;43.994;22.878;2023-09-07T03:35:15;7.27;;;5.37;;
6566;SDS011;3317;43.994;22.878;2023-09-07T03:37:43;9.60;;;6.20;;
6566;SDS011;3317;43.994;22.878;2023-09-07T03:40:10;10.07;;;6.40;;
6566;SDS011;3317;43.994;22.878;2023-09-07T03:42:38;8.57;;;6.33;;
6566;SDS011;3317;43.994;22.878;2023-09-07T03:45:05;7.97;;;5.97;;
6566;SDS011;3317;43.994;22.878;2023-09-07T03:47:32;9.90;;;6.00;;
6566;SDS011;3317;43.994;22.878;2023-09-07T03:49:59;9.80;;;5.97;;
6566;SDS011;3317;43.994;22.878;2023-09-07T03:52:26;8.03;;;5.50;;
6566;SDS011;3317;43.994;22.878;2023-09-07T03:54:55;9.23;;;5.57;;
6566;SDS011;3317;43.994;22.878;2023-09-07T03:57:22;10.27;;;6.30;;
6566;SDS011;3317;43.994;22.878;2023-09-07T03:59:49;10.00;;;5.57;;
6566;SDS011;3317;43.994;22.878;2023-09-07T04:02:16;10.40;;;5.67;;
6566;SDS011;3317;43.994;22.878;2023-09-07T04:04:46;7.33;;;5.50;;
6566;SDS011;3317;43.994;22.878;2023-09-07T04:07:15;7.10;;;5.37;;
6566;SDS011;3317;43.994;22.878;2023-09-07T04:09:42;7.77;;;5.10;;
6566;SDS011;3317;43.994;22.878;2023-09-07T04:12:11;9.20;;;5.53;;
6566;SDS011;3317;43.994;22.878;2023-09-07T04:14:38;8.30;;;5.50;;
6566;SDS011;3317;43.994;22.878;2023-09-07T04:17:07;10.23;;;5.30;;
6566;SDS011;3317;43.994;22.878;2023-09-07T04:19:33;10.80;;;5.50;;
6566;SDS011;3317;43.994;22.878;2023-09-07T04:22:00;9.83;;;5.50;;
6566;SDS011;3317;43.994;22.878;2023-09-07T04:24:27;8.90;;;4.63;;
6566;SDS011;3317;43.994;22.878;2023-09-07T04:26:57;9.40;;;5.77;;
6566;SDS011;3317;43.994;22.878;2023-09-07T04:29:26;9.27;;;5.60;;
6566;SDS011;3317;43.994;22.878;2023-09-07T04:31:54;35.40;;;15.20;;
6566;SDS011;3317;43.994;22.878;2023-09-07T04:34:21;17.00;;;7.37;;
6566;SDS011;3317;43.994;22.878;2023-09-07T04:36:48;33.80;;;13.70;;
6566;SDS011;3317;43.994;22.878;2023-09-07T04:39:15;32.03;;;12.63;;
6566;SDS011;3317;43.994;22.878;2023-09-07T04:41:42;17.17;;;9.07;;
6566;SDS011;3317;43.994;22.878;2023-09-07T04:44:09;18.87;;;8.57;;
6566;SDS011;3317;43.994;22.878;2023-09-07T04:46:37;13.77;;;7.10;;
6566;SDS011;3317;43.994;22.878;2023-09-07T04:49:04;17.07;;;6.97;;
6566;SDS011;3317;43.994;22.878;2023-09-07T04:51:31;14.20;;;7.40;;
6566;SDS011;3317;43.994;22.878;2023-09-07T04:53:58;11.70;;;6.70;;
6566;SDS011;3317;43.994;22.878;2023-09-07T04:56:25;12.13;;;6.93;;
6566;SDS011;3317;43.994;22.878;2023-09-07T04:59:44;12.83;;;6.90;;
6566;SDS011;3317;43.994;22.878;2023-09-07T05:02:42;9.33;;;6.57;;
6566;SDS011;3317;43.994;22.878;2023-09-07T05:05:12;8.73;;;6.23;;
6566;SDS011;3317;43.994;22.878;2023-09-07T05:07:39;11.07;;;6.73;;
6566;SDS011;3317;43.994;22.878;2023-09-07T05:10:06;10.77;;;6.50;;
6566;SDS011;3317;43.994;22.878;2023-09-07T05:12:37;12.10;;;7.10;;
6566;SDS011;3317;43.994;22.878;2023-09-07T05:15:04;12.53;;;7.23;;
6566;SDS011;3317;43.994;22.878;2023-09-07T05:17:33;12.07;;;7.50;;
6566;SDS011;3317;43.994;22.878;2023-09-07T05:20:01;12.57;;;7.57;;
6566;SDS011;3317;43.994;22.878;2023-09-07T05:22:48;21.00;;;9.17;;
6566;SDS011;3317;43.994;22.878;2023-09-07T05:25:43;17.00;;;7.90;;
6566;SDS011;3317;43.994;22.878;2023-09-07T05:28:10;12.30;;;7.53;;
6566;SDS011;3317;43.994;22.878;2023-09-07T05:30:39;14.30;;;7.70;;
6566;SDS011;3317;43.994;22.878;2023-09-07T05:33:06;17.40;;;9.73;;
6566;SDS011;3317;43.994;22.878;2023-09-07T05:35:34;18.03;;;10.20;;
6566;SDS011;3317;43.994;22.878;2023-09-07T05:38:02;21.10;;;10.40;;
6566;SDS011;3317;43.994;22.878;2023-09-07T05:40:29;18.20;;;11.03;;
6566;SDS011;3317;43.994;22.878;2023-09-07T05:42:56;21.50;;;12.10;;
6566;SDS011;3317;43.994;22.878;2023-09-07T05:45:23;19.03;;;10.90;;
6566;SDS011;3317;43.994;22.878;2023-09-07T05:47:50;18.77;;;10.77;;
6566;SDS011;3317;43.994;22.878;2023-09-07T05:50:17;17.67;;;11.97;;
6566;SDS011;3317;43.994;22.878;2023-09-07T05:52:45;28.70;;;14.70;;
6566;SDS011;3317;43.994;22.878;2023-09-07T05:55:12;33.00;;;19.53;;
6566;SDS011;3317;43.994;22.878;2023-09-07T05:57:39;26.73;;;16.17;;
6566;SDS011;3317;43.994;22.878;2023-09-07T06:00:06;29.50;;;16.90;;
6566;SDS011;3317;43.994;22.878;2023-09-07T06:02:34;28.53;;;15.13;;
6566;SDS011;3317;43.994;22.878;2023-09-07T06:05:01;27.00;;;14.43;;
6566;SDS011;3317;43.994;22.878;2023-09-07T06:07:28;24.20;;;14.20;;
6566;SDS011;3317;43.994;22.878;2023-09-07T06:09:56;26.67;;;15.23;;
6566;SDS011;3317;43.994;22.878;2023-09-07T06:12:24;24.93;;;13.43;;
6566;SDS011;3317;43.994;22.878;2023-09-07T06:14:51;27.60;;;14.23;;
6566;SDS011;3317;43.994;22.878;2023-09-07T06:17:18;30.73;;;14.83;;
6566;SDS011;3317;43.994;22.878;2023-09-07T06:19:45;29.87;;;13.33;;
6566;SDS011;3317;43.994;22.878;2023-09-07T06:22:13;22.00;;;12.70;;
6566;SDS011;3317;43.994;22.878;2023-09-07T06:24:40;16.87;;;10.70;;
6566;SDS011;3317;43.994;22.878;2023-09-07T06:27:08;21.47;;;11.07;;
6566;SDS011;3317;43.994;22.878;2023-09-07T06:29:35;16.90;;;10.00;;
6566;SDS011;3317;43.994;22.878;2023-09-07T06:32:02;22.93;;;9.83;;
6566;SDS011;3317;43.994;22.878;2023-09-07T06:34:29;15.50;;;10.20;;
6566;SDS011;3317;43.994;22.878;2023-09-07T06:36:56;16.20;;;8.33;;
6566;SDS011;3317;43.994;22.878;2023-09-07T06:39:23;14.27;;;8.90;;
6566;SDS011;3317;43.994;22.878;2023-09-07T06:41:51;16.30;;;8.33;;
6566;SDS011;3317;43.994;22.878;2023-09-07T06:44:19;15.13;;;7.70;;
6566;SDS011;3317;43.994;22.878;2023-09-07T06:46:46;15.70;;;7.67;;
6566;SDS011;3317;43.994;22.878;2023-09-07T06:49:14;9.67;;;5.97;;
6566;SDS011;3317;43.994;22.878;2023-09-07T06:51:41;12.63;;;7.50;;
6566;SDS011;3317;43.994;22.878;2023-09-07T06:54:08;12.17;;;6.57;;
6566;SDS011;3317;43.994;22.878;2023-09-07T06:56:35;15.63;;;7.00;;
6566;SDS011;3317;43.994;22.878;2023-09-07T06:59:02;11.83;;;6.90;;
6566;SDS011;3317;43.994;22.878;2023-09-07T07:01:30;8.87;;;6.03;;
6566;SDS011;3317;43.994;22.878;2023-09-07T07:03:57;13.93;;;7.90;;
6566;SDS011;3317;43.994;22.878;2023-09-07T07:06:24;10.20;;;7.37;;
6566;SDS011;3317;43.994;22.878;2023-09-07T07:08:51;12.10;;;7.27;;
6566;SDS011;3317;43.994;22.878;2023-09-07T07:11:18;14.03;;;6.90;;
6566;SDS011;3317;43.994;22.878;2023-09-07T07:13:45;9.53;;;5.80;;
6566;SDS011;3317;43.994;22.878;2023-09-07T07:16:12;6.00;;;4.60;;
6566;SDS011;3317;43.994;22.878;2023-09-07T07:18:41;10.00;;;6.53;;
6566;SDS011;3317;43.994;22.878;2023-09-07T07:21:08;6.60;;;5.40;;
6566;SDS011;3317;43.994;22.878;2023-09-07T07:23:35;13.77;;;5.17;;
6566;SDS011;3317;43.994;22.878;2023-09-07T07:26:02;8.67;;;4.93;;
6566;SDS011;3317;43.994;22.878;2023-09-07T07:28:29;11.93;;;5.83;;
6566;SDS011;3317;43.994;22.878;2023-09-07T07:30:56;8.80;;;4.83;;
6566;SDS011;3317;43.994;22.878;2023-09-07T07:33:23;7.97;;;5.00;;
6566;SDS011;3317;43.994;22.878;2023-09-07T07:35:52;8.57;;;6.17;;
6566;SDS011;3317;43.994;22.878;2023-09-07T07:38:19;8.13;;;5.07;;
6566;SDS011;3317;43.994;22.878;2023-09-07T07:40:46;6.10;;;4.50;;
6566;SDS011;3317;43.994;22.878;2023-09-07T07:43:14;11.13;;;5.60;;
6566;SDS011;3317;43.994;22.878;2023-09-07T07:45:42;6.83;;;5.10;;
6566;SDS011;3317;43.994;22.878;2023-09-07T07:48:09;11.77;;;5.43;;
6566;SDS011;3317;43.994;22.878;2023-09-07T07:50:36;6.73;;;4.70;;
6566;SDS011;3317;43.994;22.878;2023-09-07T07:53:06;7.33;;;5.17;;
6566;SDS011;3317;43.994;22.878;2023-09-07T07:55:34;7.00;;;4.67;;
6566;SDS011;3317;43.994;22.878;2023-09-07T07:58:04;5.27;;;4.30;;
6566;SDS011;3317;43.994;22.878;2023-09-07T08:00:33;6.53;;;4.50;;
6566;SDS011;3317;43.994;22.878;2023-09-07T08:03:00;11.93;;;4.90;;
6566;SDS011;3317;43.994;22.878;2023-09-07T08:05:28;6.70;;;5.00;;
6566;SDS011;3317;43.994;22.878;2023-09-07T08:07:55;8.93;;;5.10;;
6566;SDS011;3317;43.994;22.878;2023-09-07T08:10:24;9.20;;;5.10;;
6566;SDS011;3317;43.994;22.878;2023-09-07T08:12:53;6.50;;;5.13;;
6566;SDS011;3317;43.994;22.878;2023-09-07T08:15:20;8.50;;;5.33;;
6566;SDS011;3317;43.994;22.878;2023-09-07T08:17:50;8.83;;;5.20;;
6566;SDS011;3317;43.994;22.878;2023-09-07T08:20:17;7.20;;;5.10;;
6566;SDS011;3317;43.994;22.878;2023-09-07T08:22:44;5.90;;;4.70;;
6566;SDS011;3317;43.994;22.878;2023-09-07T08:25:11;8.67;;;5.17;;
6566;SDS011;3317;43.994;22.878;2023-09-07T08:27:41;8.47;;;5.10;;
6566;SDS011;3317;43.994;22.878;2023-09-07T08:30:10;7.30;;;4.83;;
6566;SDS011;3317;43.994;22.878;2023-09-07T08:32:38;7.63;;;5.13;;
6566;SDS011;3317;43.994;22.878;2023-09-07T08:35:05;8.77;;;5.00;;
6566;SDS011;3317;43.994;22.878;2023-09-07T08:37:34;9.63;;;4.97;;
6566;SDS011;3317;43.994;22.878;2023-09-07T08:40:01;6.73;;;4.40;;
6566;SDS011;3317;43.994;22.878;2023-09-07T08:42:29;7.50;;;4.80;;
6566;SDS011;3317;43.994;22.878;2023-09-07T08:44:58;6.70;;;4.30;;
6566;SDS011;3317;43.994;22.878;2023-09-07T08:47:32;10.07;;;4.70;;
6566;SDS011;3317;43.994;22.878;2023-09-07T08:50:01;9.63;;;4.20;;
6566;SDS011;3317;43.994;22.878;2023-09-07T08:52:28;6.93;;;4.43;;
6566;SDS011;3317;43.994;22.878;2023-09-07T08:54:56;6.07;;;4.37;;
6566;SDS011;3317;43.994;22.878;2023-09-07T08:57:26;9.10;;;4.57;;
6566;SDS011;3317;43.994;22.878;2023-09-07T08:59:53;7.70;;;4.70;;
6566;SDS011;3317;43.994;22.878;2023-09-07T09:02:21;6.37;;;4.80;;
6566;SDS011;3317;43.994;22.878;2023-09-07T09:04:48;7.90;;;4.70;;
6566;SDS011;3317;43.994;22.878;2023-09-07T09:07:17;9.20;;;5.03;;
6566;SDS011;3317;43.994;22.878;2023-09-07T09:09:44;5.60;;;4.63;;
6566;SDS011;3317;43.994;22.878;2023-09-07T09:12:11;6.20;;;4.30;;
6566;SDS011;3317;43.994;22.878;2023-09-07T09:14:39;8.63;;;4.90;;
6566;SDS011;3317;43.994;22.878;2023-09-07T09:17:10;7.47;;;5.00;;
6566;SDS011;3317;43.994;22.878;2023-09-07T09:19:40;9.33;;;5.10;;
6566;SDS011;3317;43.994;22.878;2023-09-07T09:22:07;7.70;;;5.17;;
6566;SDS011;3317;43.994;22.878;2023-09-07T09:24:34;8.93;;;4.60;;
6566;SDS011;3317;43.994;22.878;2023-09-07T09:27:02;8.60;;;4.60;;
6566;SDS011;3317;43.994;22.878;2023-09-07T09:29:29;8.53;;;5.10;;
6566;SDS011;3317;43.994;22.878;2023-09-07T09:31:59;9.83;;;5.17;;
6566;SDS011;3317;43.994;22.878;2023-09-07T09:34:30;8.97;;;5.17;;
6566;SDS011;3317;43.994;22.878;2023-09-07T09:37:03;7.50;;;4.80;;
6566;SDS011;3317;43.994;22.878;2023-09-07T09:39:31;7.13;;;4.13;;
6566;SDS011;3317;43.994;22.878;2023-09-07T09:41:59;9.33;;;4.27;;
6566;SDS011;3317;43.994;22.878;2023-09-07T09:44:26;12.73;;;5.77;;
6566;SDS011;3317;43.994;22.878;2023-09-07T09:46:58;9.13;;;4.67;;
6566;SDS011;3317;43.994;22.878;2023-09-07T09:49:25;5.07;;;3.97;;
6566;SDS011;3317;43.994;22.878;2023-09-07T09:51:54;6.10;;;4.47;;
6566;SDS011;3317;43.994;22.878;2023-09-07T09:54:25;10.20;;;5.27;;
6566;SDS011;3317;43.994;22.878;2023-09-07T09:56:52;9.80;;;6.63;;
6566;SDS011;3317;43.994;22.878;2023-09-07T09:59:20;6.40;;;4.93;;
6566;SDS011;3317;43.994;22.878;2023-09-07T10:01:48;6.20;;;4.47;;
6566;SDS011;3317;43.994;22.878;2023-09-07T10:04:16;6.20;;;4.30;;
6566;SDS011;3317;43.994;22.878;2023-09-07T10:06:52;5.00;;;4.00;;
6566;SDS011;3317;43.994;22.878;2023-09-07T10:09:21;6.60;;;4.60;;
6566;SDS011;3317;43.994;22.878;2023-09-07T10:12:01;9.03;;;4.83;;
6566;SDS011;3317;43.994;22.878;2023-09-07T10:14:37;8.23;;;4.83;;
6566;SDS011;3317;43.994;22.878;2023-09-07T10:17:05;9.40;;;4.13;;
6566;SDS011;3317;43.994;22.878;2023-09-07T10:19:49;6.80;;;4.17;;
6566;SDS011;3317;43.994;22.878;2023-09-07T10:22:31;11.87;;;5.03;;
6566;SDS011;3317;43.994;22.878;2023-09-07T10:25:17;6.83;;;4.37;;
6566;SDS011;3317;43.994;22.878;2023-09-07T10:27:46;7.67;;;5.00;;
6566;SDS011;3317;43.994;22.878;2023-09-07T10:30:13;9.90;;;4.70;;
6566;SDS011;3317;43.994;22.878;2023-09-07T10:32:44;6.00;;;4.40;;
6566;SDS011;3317;43.994;22.878;2023-09-07T10:35:13;6.93;;;4.40;;
6566;SDS011;3317;43.994;22.878;2023-09-07T10:37:41;9.70;;;4.60;;
6566;SDS011;3317;43.994;22.878;2023-09-07T10:40:11;9.47;;;4.07;;
6566;SDS011;3317;43.994;22.878;2023-09-07T10:42:41;5.67;;;4.47;;
6566;SDS011;3317;43.994;22.878;2023-09-07T10:45:10;7.27;;;5.60;;
6566;SDS011;3317;43.994;22.878;2023-09-07T10:47:40;6.33;;;4.33;;
6566;SDS011;3317;43.994;22.878;2023-09-07T10:50:09;10.23;;;4.50;;
6566;SDS011;3317;43.994;22.878;2023-09-07T10:52:38;8.23;;;4.47;;
6566;SDS011;3317;43.994;22.878;2023-09-07T10:55:06;6.20;;;4.77;;
6566;SDS011;3317;43.994;22.878;2023-09-07T10:57:44;10.00;;;4.33;;
6566;SDS011;3317;43.994;22.878;2023-09-07T11:00:14;8.30;;;4.33;;
6566;SDS011;3317;43.994;22.878;2023-09-07T11:02:42;7.90;;;4.93;;
6566;SDS011;3317;43.994;22.878;2023-09-07T11:05:10;6.57;;;4.43;;
6566;SDS011;3317;43.994;22.878;2023-09-07T11:07:36;10.30;;;4.90;;
6566;SDS011;3317;43.994;22.878;2023-09-07T11:10:06;6.90;;;4.70;;
6566;SDS011;3317;43.994;22.878;2023-09-07T11:12:37;7.37;;;4.30;;
6566;SDS011;3317;43.994;22.878;2023-09-07T11:15:04;8.30;;;5.07;;
6566;SDS011;3317;43.994;22.878;2023-09-07T11:17:37;7.60;;;4.33;;
6566;SDS011;3317;43.994;22.878;2023-09-07T11:20:06;8.23;;;5.03;;
6566;SDS011;3317;43.994;22.878;2023-09-07T11:22:35;13.53;;;5.30;;
6566;SDS011;3317;43.994;22.878;2023-09-07T11:25:04;9.20;;;5.10;;
6566;SDS011;3317;43.994;22.878;2023-09-07T11:27:31;7.93;;;4.90;;
6566;SDS011;3317;43.994;22.878;2023-09-07T11:29:58;9.10;;;4.33;;
6566;SDS011;3317;43.994;22.878;2023-09-07T11:32:33;10.53;;;4.27;;
6566;SDS011;3317;43.994;22.878;2023-09-07T11:35:02;5.17;;;4.00;;
6566;SDS011;3317;43.994;22.878;2023-09-07T11:37:32;8.90;;;4.40;;
6566;SDS011;3317;43.994;22.878;2023-09-07T11:40:00;5.37;;;4.27;;
6566;SDS011;3317;43.994;22.878;2023-09-07T11:42:29;5.67;;;4.33;;
6566;SDS011;3317;43.994;22.878;2023-09-07T11:44:56;7.73;;;4.40;;
6566;SDS011;3317;43.994;22.878;2023-09-07T11:47:23;8.00;;;4.70;;
6566;SDS011;3317;43.994;22.878;2023-09-07T11:49:50;11.20;;;4.60;;
6566;SDS011;3317;43.994;22.878;2023-09-07T11:52:19;6.60;;;4.00;;
6566;SDS011;3317;43.994;22.878;2023-09-07T11:54:46;5.03;;;4.30;;
6566;SDS011;3317;43.994;22.878;2023-09-07T11:57:13;4.90;;;4.40;;
6566;SDS011;3317;43.994;22.878;2023-09-07T11:59:41;7.10;;;5.03;;
6566;SDS011;3317;43.994;22.878;2023-09-07T12:02:08;7.13;;;4.13;;
6566;SDS011;3317;43.994;22.878;2023-09-07T12:04:36;5.40;;;4.60;;
6566;SDS011;3317;43.994;22.878;2023-09-07T12:07:04;7.10;;;3.97;;
6566;SDS011;3317;43.994;22.878;2023-09-07T12:09:33;5.10;;;4.47;;
6566;SDS011;3317;43.994;22.878;2023-09-07T12:12:03;6.13;;;4.47;;
6566;SDS011;3317;43.994;22.878;2023-09-07T12:14:30;5.10;;;4.27;;
6566;SDS011;3317;43.994;22.878;2023-09-07T12:16:57;4.80;;;3.70;;
6566;SDS011;3317;43.994;22.878;2023-09-07T12:19:25;6.43;;;3.90;;
6566;SDS011;3317;43.994;22.878;2023-09-07T12:21:52;10.10;;;4.97;;
6566;SDS011;3317;43.994;22.878;2023-09-07T12:24:19;7.43;;;4.63;;
6566;SDS011;3317;43.994;22.878;2023-09-07T12:26:47;5.33;;;4.20;;
6566;SDS011;3317;43.994;22.878;2023-09-07T12:29:14;7.50;;;4.17;;
6566;SDS011;3317;43.994;22.878;2023-09-07T12:31:41;5.90;;;4.50;;
6566;SDS011;3317;43.994;22.878;2023-09-07T12:34:08;6.03;;;4.00;;
6566;SDS011;3317;43.994;22.878;2023-09-07T12:36:35;4.80;;;3.93;;
6566;SDS011;3317;43.994;22.878;2023-09-07T12:39:02;5.47;;;4.53;;
6566;SDS011;3317;43.994;22.878;2023-09-07T12:41:30;9.40;;;4.50;;
6566;SDS011;3317;43.994;22.878;2023-09-07T12:46:54;8.53;;;4.73;;
6566;SDS011;3317;43.994;22.878;2023-09-07T12:49:21;9.17;;;4.47;;
6566;SDS011;3317;43.994;22.878;2023-09-07T12:51:48;9.20;;;4.93;;
6566;SDS011;3317;43.994;22.878;2023-09-07T12:54:15;6.07;;;4.30;;
6566;SDS011;3317;43.994;22.878;2023-09-07T12:56:42;6.50;;;4.10;;
6566;SDS011;3317;43.994;22.878;2023-09-07T12:59:10;6.53;;;4.33;;
6566;SDS011;3317;43.994;22.878;2023-09-07T13:01:41;5.53;;;4.60;;
6566;SDS011;3317;43.994;22.878;2023-09-07T13:04:28;10.10;;;4.80;;
6566;SDS011;3317;43.994;22.878;2023-09-07T13:06:55;8.53;;;4.87;;
6566;SDS011;3317;43.994;22.878;2023-09-07T13:09:22;6.23;;;4.73;;
6566;SDS011;3317;43.994;22.878;2023-09-07T13:11:48;10.63;;;4.30;;
6566;SDS011;3317;43.994;22.878;2023-09-07T13:14:15;6.10;;;4.50;;
6566;SDS011;3317;43.994;22.878;2023-09-07T13:19:38;6.50;;;4.33;;
6566;SDS011;3317;43.994;22.878;2023-09-07T13:22:05;7.60;;;4.93;;
6566;SDS011;3317;43.994;22.878;2023-09-07T13:24:32;8.20;;;4.57;;
6566;SDS011;3317;43.994;22.878;2023-09-07T13:26:59;4.70;;;4.00;;
6566;SDS011;3317;43.994;22.878;2023-09-07T13:29:27;5.13;;;4.20;;
6566;SDS011;3317;43.994;22.878;2023-09-07T13:31:54;6.63;;;4.03;;
6566;SDS011;3317;43.994;22.878;2023-09-07T13:34:27;7.30;;;4.37;;
6566;SDS011;3317;43.994;22.878;2023-09-07T13:36:54;6.30;;;4.37;;
6566;SDS011;3317;43.994;22.878;2023-09-07T13:39:22;7.40;;;4.33;;
6566;SDS011;3317;43.994;22.878;2023-09-07T13:41:49;5.13;;;3.70;;
6566;SDS011;3317;43.994;22.878;2023-09-07T13:44:16;6.33;;;4.20;;
6566;SDS011;3317;43.994;22.878;2023-09-07T13:46:44;7.20;;;4.60;;
6566;SDS011;3317;43.994;22.878;2023-09-07T13:49:11;11.63;;;4.60;;
6566;SDS011;3317;43.994;22.878;2023-09-07T13:51:41;7.43;;;4.20;;
6566;SDS011;3317;43.994;22.878;2023-09-07T13:54:08;5.57;;;4.20;;
6566;SDS011;3317;43.994;22.878;2023-09-07T13:56:35;6.70;;;4.20;;
6566;SDS011;3317;43.994;22.878;2023-09-07T13:59:02;5.43;;;4.50;;
6566;SDS011;3317;43.994;22.878;2023-09-07T14:01:29;4.87;;;4.10;;
6566;SDS011;3317;43.994;22.878;2023-09-07T14:03:56;4.60;;;3.63;;
6566;SDS011;3317;43.994;22.878;2023-09-07T14:06:23;6.00;;;4.30;;
6566;SDS011;3317;43.994;22.878;2023-09-07T14:08:52;4.87;;;4.10;;
6566;SDS011;3317;43.994;22.878;2023-09-07T14:11:19;8.43;;;4.57;;
6566;SDS011;3317;43.994;22.878;2023-09-07T14:13:47;7.20;;;4.70;;
6566;SDS011;3317;43.994;22.878;2023-09-07T14:16:16;6.83;;;4.23;;
6566;SDS011;3317;43.994;22.878;2023-09-07T14:18:44;6.43;;;4.13;;
6566;SDS011;3317;43.994;22.878;2023-09-07T14:21:12;4.47;;;4.07;;
6566;SDS011;3317;43.994;22.878;2023-09-07T14:23:39;7.67;;;4.90;;
6566;SDS011;3317;43.994;22.878;2023-09-07T14:26:09;6.57;;;3.97;;
6566;SDS011;3317;43.994;22.878;2023-09-07T14:28:36;7.30;;;4.20;;
6566;SDS011;3317;43.994;22.878;2023-09-07T14:31:04;8.20;;;4.80;;
6566;SDS011;3317;43.994;22.878;2023-09-07T14:33:32;5.03;;;4.00;;
6566;SDS011;3317;43.994;22.878;2023-09-07T14:36:03;5.30;;;3.90;;
6566;SDS011;3317;43.994;22.878;2023-09-07T14:38:31;7.07;;;3.90;;
6566;SDS011;3317;43.994;22.878;2023-09-07T14:41:00;9.43;;;4.87;;
6566;SDS011;3317;43.994;22.878;2023-09-07T14:43:28;9.17;;;4.30;;
6566;SDS011;3317;43.994;22.878;2023-09-07T14:45:55;7.13;;;4.10;;
6566;SDS011;3317;43.994;22.878;2023-09-07T14:48:22;6.03;;;4.17;;
6566;SDS011;3317;43.994;22.878;2023-09-07T14:50:50;6.00;;;4.20;;
6566;SDS011;3317;43.994;22.878;2023-09-07T14:53:17;11.33;;;3.77;;
6566;SDS011;3317;43.994;22.878;2023-09-07T14:55:44;6.43;;;3.90;;
6566;SDS011;3317;43.994;22.878;2023-09-07T14:58:11;7.13;;;4.00;;
6566;SDS011;3317;43.994;22.878;2023-09-07T15:00:39;6.70;;;4.40;;
6566;SDS011;3317;43.994;22.878;2023-09-07T15:03:06;6.20;;;4.53;;
6566;SDS011;3317;43.994;22.878;2023-09-07T15:05:33;10.23;;;4.80;;
6566;SDS011;3317;43.994;22.878;2023-09-07T15:08:01;5.63;;;4.60;;
6566;SDS011;3317;43.994;22.878;2023-09-07T15:10:29;7.83;;;5.23;;